Airfield :
LOGIN :

Register | Disclaimer

   EN    FR    IT 

 










Legend :    VFR   Marginal VFR   IFR   Intensive IFR   Very Intensive IFR
Visi :
Ceiling :
>= 8 km
>= 3000ft
5 to 8 km
1000 to 3000 ft
1500m to 5 km
500 to 1000 ft
800 to 1500m
200 to 500 ft
< 800m
< 200 ft
Symbols :   Thunderstorms  Fog  Heavy snow  Heavy precipitations  Wind > 20 kt
SIGMETs :     Misc.  Thunderstorms  Icing  Turbulence  Mountain Waves  Volcanic Ashes







- Airport Elevation : 119 ft
- IATA code : WAT


EIWF - Waterford

CURRENT METAR :
  • 142030Z 32013G23KT CAVOK 05/02 Q0994 R03/1/////

EXPIRED METARs :
  • 142000Z 33014KT CAVOK 04/02 Q0994 R03/1/////
  • 141930Z 33016G26KT 290V360 CAVOK 04/02 Q0993 R03/1/////
  • 141900Z 33016KT 300V010 CAVOK 04/02 Q0993 R03/1/////
  • 141830Z 34014KT 310V010 CAVOK 04/02 Q0992 R03/1/////
  • 141800Z 33018KT 290V350 9999 SCT024 05/03 Q0992 R03/1/////

TAF TAF EIWF
Valid from the 14 at 21:00 until the 15 at 06:00 UTC


142000Z 1421/1506 32017KT 9999 SCT040
TEMPO 1423/1506 33020G30KT
ATIS : +353 51 877 000
No reported NOTAMs for that airfield.
1 SIGMET reported for the Shannon FIR (EISN) :
 
Severe turbulence
EISN SIGMET 11 VALID 141700/142100 EINN
EISN SHANNON FIR SEV TURB FCST WI N5432 W01000 - N5140 W00930 - N5100 W00930 - N5100 W01500 - N5400 W01500 - N5432 W01000 SFC/FL060 MOV SE AT 40KT NC=



MET'MAP, your aeronautical weather chart ! - Copyright ORBIFLY December 2007 - Disclaimer

ORBIFLY MET'MAP TEAM :

Programming & Development : Alexandra Zaïnal
Concept & Development : Baudouin d'Aumeries
Co-Development & Prog : Marc-Olivier Méhu
Technical & hardware support : Manuel Goepfert

Contact : metmap@orbifly.com




SOURCES & CREDITS :

   NOAA